Time;durP1;ratioP1;P1;durP2;ratioP2;P2;SDS_P1;SDS_P2;PMS_P1;PMS_P2;Temp;Humidity;BMP_temperature;BMP_pressure;BME280_temperature;BME280_humidity;BME280_pressure;Samples;Min_cycle;Max_cycle;Signal;HPM_P1;HPM_P2
2022/01/29 00:00:46;;;;;;;61.92;31.92;;;;;;;4.71;100.00;102952.94;5053893;28;20047;-81
2022/01/29 00:03:11;;;;;;;65.07;31.35;;;;;;;4.67;100.00;102958.78;5055067;28;20109;-80
2022/01/29 00:05:37;;;;;;;67.57;30.90;;;;;;;4.69;100.00;102952.00;5048551;28;20480;-81
2022/01/29 00:08:03;;;;;;;67.03;31.00;;;;;;;4.72;100.00;102946.94;5035229;28;20115;-80
2022/01/29 00:10:28;;;;;;;65.53;31.80;;;;;;;4.70;100.00;102941.69;5034826;28;20021;-81
2022/01/29 00:12:54;;;;;;;72.75;32.17;;;;;;;4.69;100.00;102934.78;5034864;28;20025;-81
2022/01/29 00:15:20;;;;;;;69.80;32.28;;;;;;;4.73;100.00;102930.59;5034183;28;20441;-81
2022/01/29 00:17:45;;;;;;;65.10;30.38;;;;;;;4.75;100.00;102926.38;5042942;28;20025;-81
2022/01/29 00:20:11;;;;;;;70.22;30.92;;;;;;;4.77;100.00;102926.41;5052645;28;20048;-81
2022/01/29 00:22:37;;;;;;;61.97;28.60;;;;;;;4.74;100.00;102919.44;5053845;28;20041;-81
2022/01/29 00:25:03;;;;;;;65.43;31.02;;;;;;;4.76;100.00;102914.31;5054506;28;20071;-80
2022/01/29 00:27:32;;;;;;;62.90;30.70;;;;;;;4.78;100.00;102918.72;5047562;28;20033;-80
2022/01/29 00:30:01;;;;;;;64.90;31.75;;;;;;;4.79;100.00;102912.72;5033617;28;20220;-81
2022/01/29 00:32:27;;;;;;;68.82;31.50;;;;;;;4.80;100.00;102913.59;5034123;28;20026;-80
2022/01/29 00:34:53;;;;;;;71.78;33.70;;;;;;;4.79;100.00;102912.72;5043838;28;20384;-81
2022/01/29 00:37:19;;;;;;;65.40;31.58;;;;;;;4.78;100.00;102900.63;5052589;28;20040;-81
2022/01/29 00:39:44;;;;;;;63.55;30.70;;;;;;;4.81;100.00;102895.56;5053892;28;20029;-81
2022/01/29 00:42:09;;;;;;;67.18;31.67;;;;;;;4.80;100.00;102883.44;5040201;28;20030;-81
2022/01/29 00:44:35;;;;;;;61.45;30.80;;;;;;;4.84;100.00;102893.09;5034002;28;20485;-81
2022/01/29 00:47:00;;;;;;;63.60;32.33;;;;;;;4.84;100.00;102905.09;5033038;28;20033;-80
2022/01/29 00:49:25;;;;;;;68.53;30.52;;;;;;;4.85;100.00;102905.16;5034162;28;20036;-81
2022/01/29 00:51:50;;;;;;;66.40;30.55;;;;;;;4.87;100.00;102888.03;5043773;28;20025;-81
2022/01/29 00:54:16;;;;;;;62.40;31.55;;;;;;;4.87;100.00;102893.19;5039700;28;20096;-81
2022/01/29 00:56:41;;;;;;;69.88;32.55;;;;;;;4.86;100.00;102883.66;5032843;28;20108;-81
2022/01/29 00:59:06;;;;;;;66.90;32.15;;;;;;;4.88;100.00;102881.13;5034327;28;20034;-81
2022/01/29 01:01:31;;;;;;;66.63;31.02;;;;;;;4.91;100.00;102879.53;5040715;28;20035;-81
2022/01/29 01:03:57;;;;;;;68.35;32.47;;;;;;;4.91;100.00;102876.06;5041430;28;20378;-80
2022/01/29 01:06:22;;;;;;;65.00;31.50;;;;;;;4.91;100.00;102870.91;5047474;28;20127;-80
2022/01/29 01:08:47;;;;;;;69.65;32.97;;;;;;;4.89;100.00;102870.84;5051385;28;20063;-81
2022/01/29 01:11:12;;;;;;;64.95;32.35;;;;;;;4.91;100.00;102871.78;5033162;28;20110;-81
2022/01/29 01:13:38;;;;;;;68.00;34.67;;;;;;;4.89;100.00;102860.50;5033452;28;20045;-81
2022/01/29 01:16:04;;;;;;;66.50;32.13;;;;;;;4.86;100.00;102847.47;5033876;28;20014;-81
2022/01/29 01:18:30;;;;;;;71.82;33.03;;;;;;;4.85;100.00;102850.91;5032597;28;20117;-81
2022/01/29 01:20:55;;;;;;;76.35;33.53;;;;;;;4.80;100.00;102844.69;5049571;28;20025;-81
2022/01/29 01:23:21;;;;;;;72.15;31.95;;;;;;;4.86;100.00;102839.72;5053602;28;20032;-81
2022/01/29 01:25:48;;;;;;;62.70;32.35;;;;;;;4.85;100.00;102834.50;5052199;28;20029;-81
2022/01/29 01:28:13;;;;;;;66.00;32.67;;;;;;;4.81;100.00;102817.16;5053587;28;20500;-80
2022/01/29 01:30:39;;;;;;;66.88;32.40;;;;;;;4.83;100.00;102807.72;5040013;28;20116;-81
2022/01/29 01:33:05;;;;;;;67.32;32.50;;;;;;;4.85;100.00;102819.88;5048793;28;20036;-81
2022/01/29 01:35:37;;;;;;;73.60;33.70;;;;;;;4.86;100.00;102811.28;5052972;28;20021;-81
2022/01/29 01:40:40;;;;;;;67.13;31.00;;;;;;;4.85;100.00;102795.75;5052643;28;20055;-81
2022/01/29 01:43:05;;;;;;;70.97;32.33;;;;;;;4.84;100.00;102800.03;5053270;28;20044;-80
2022/01/29 01:45:30;;;;;;;63.13;32.22;;;;;;;4.81;100.00;102799.06;5032859;28;20692;-81
2022/01/29 01:47:57;;;;;;;66.55;32.40;;;;;;;4.79;100.00;102793.84;5032924;28;20112;-81
2022/01/29 01:50:24;;;;;;;69.65;32.78;;;;;;;4.83;100.00;102812.91;5042681;28;20029;-81
2022/01/29 01:52:50;;;;;;;67.32;34.42;;;;;;;4.82;100.00;102803.41;5051904;28;20028;-80
2022/01/29 01:55:17;;;;;;;68.40;31.70;;;;;;;4.79;100.00;102792.97;5052973;28;20036;-81
2022/01/29 01:57:42;;;;;;;65.18;31.77;;;;;;;4.75;100.00;102776.50;5048840;28;20044;-80
2022/01/29 02:00:09;;;;;;;65.13;32.13;;;;;;;4.74;100.00;102779.00;5032105;28;20025;-80
2022/01/29 02:02:34;;;;;;;58.25;29.65;;;;;;;4.75;100.00;102784.25;5032467;28;20491;-81
2022/01/29 02:05:00;;;;;;;62.50;31.92;;;;;;;4.71;100.00;102777.22;5035291;28;20108;-81
2022/01/29 02:07:25;;;;;;;62.95;31.00;;;;;;;4.67;100.00;102770.19;5051866;28;20032;-81
2022/01/29 02:09:50;;;;;;;62.85;31.17;;;;;;;4.67;100.00;102770.19;5050131;28;20095;-81
2022/01/29 02:12:16;;;;;;;65.82;30.40;;;;;;;4.73;100.00;102772.09;5047149;28;20021;-81
2022/01/29 02:14:44;;;;;;;58.55;30.48;;;;;;;4.75;100.00;102755.81;5034019;28;20036;-81
2022/01/29 02:17:10;;;;;;;60.38;31.10;;;;;;;4.70;100.00;102747.03;5032813;28;20021;-81
2022/01/29 02:19:36;;;;;;;61.20;30.75;;;;;;;4.73;100.00;102757.47;5032348;28;20453;-81
2022/01/29 02:22:01;;;;;;;56.47;28.92;;;;;;;4.71;100.00;102751.41;5051667;28;20430;-81
2022/01/29 02:24:26;;;;;;;58.33;30.45;;;;;;;4.74;100.00;102753.16;5041627;28;20519;-81
2022/01/29 02:26:53;;;;;;;65.95;29.70;;;;;;;4.73;100.00;102751.44;5037069;28;20025;-81
2022/01/29 02:29:19;;;;;;;56.20;27.40;;;;;;;4.74;100.00;102753.16;5051583;28;20116;-81
2022/01/29 02:31:46;;;;;;;61.30;30.88;;;;;;;4.74;100.00;102754.06;5051856;28;20086;-81
2022/01/29 02:34:11;;;;;;;62.38;29.90;;;;;;;4.71;100.00;102738.47;5050382;28;20028;-81
2022/01/29 02:36:36;;;;;;;55.92;29.77;;;;;;;4.74;100.00;102736.00;5050924;28;20047;-81
2022/01/29 02:39:01;;;;;;;52.03;27.80;;;;;;;4.73;100.00;102738.50;5047314;28;20469;-81
2022/01/29 02:41:28;;;;;;;61.88;30.42;;;;;;;4.71;100.00;102733.31;5031634;28;20025;-80
2022/01/29 02:43:56;;;;;;;58.88;30.05;;;;;;;4.75;100.00;102739.44;5031539;28;20042;-81
2022/01/29 02:46:30;;;;;;;60.65;29.00;;;;;;;4.75;100.00;102740.31;5032342;28;20025;-81
2022/01/29 02:48:58;;;;;;;61.08;29.55;;;;;;;4.74;100.00;102737.66;5031137;28;20481;-81
2022/01/29 02:51:24;;;;;;;61.13;31.17;;;;;;;4.76;100.00;102742.06;5035497;28;20025;-81
2022/01/29 02:53:50;;;;;;;59.88;29.38;;;;;;;4.77;100.00;102740.34;5049398;28;20365;-81
2022/01/29 02:56:16;;;;;;;60.28;28.55;;;;;;;4.74;100.00;102717.91;5051199;28;20040;-81
2022/01/29 02:58:41;;;;;;;61.13;30.30;;;;;;;4.75;100.00;102719.66;5051582;28;20021;-81
2022/01/29 03:01:08;;;;;;;60.10;29.13;;;;;;;4.75;100.00;102721.34;5048260;28;20484;-81
2022/01/29 03:03:33;;;;;;;62.38;31.50;;;;;;;4.74;100.00;102717.00;5031054;28;20036;-81
2022/01/29 03:05:58;;;;;;;65.15;31.33;;;;;;;4.73;100.00;102713.53;5048696;28;20115;-81
2022/01/29 03:08:24;;;;;;;64.03;30.20;;;;;;;4.76;100.00;102710.19;5051443;28;20036;-81
2022/01/29 03:10:49;;;;;;;67.95;31.70;;;;;;;4.73;100.00;102713.53;5043870;28;20033;-81
2022/01/29 03:13:16;;;;;;;63.80;30.60;;;;;;;4.73;100.00;102708.38;5031990;28;20029;-81
2022/01/29 03:15:41;;;;;;;67.95;30.77;;;;;;;4.72;100.00;102706.63;5047363;28;20035;-81
2022/01/29 03:18:06;;;;;;;66.88;31.75;;;;;;;4.69;100.00;102710.00;5051217;28;20146;-81
2022/01/29 03:20:32;;;;;;;66.90;31.17;;;;;;;4.71;100.00;102699.72;5051458;28;20033;-81
2022/01/29 03:22:58;;;;;;;68.57;29.65;;;;;;;4.72;100.00;102698.88;5032923;28;20044;-81
2022/01/29 03:25:23;;;;;;;68.13;29.58;;;;;;;4.68;100.00;102679.81;5031890;28;20030;-81
2022/01/29 03:27:49;;;;;;;66.18;31.23;;;;;;;4.72;100.00;102698.88;5031190;28;20076;-81
2022/01/29 03:30:14;;;;;;;70.80;30.65;;;;;;;4.72;100.00;102691.13;5044326;28;20075;-81
2022/01/29 03:32:39;;;;;;;69.78;32.53;;;;;;;4.72;100.00;102693.72;5034552;28;20026;-81
2022/01/29 03:35:06;;;;;;;69.35;30.27;;;;;;;4.73;100.00;102673.91;5031806;28;20028;-81
2022/01/29 03:37:31;;;;;;;68.82;30.45;;;;;;;4.74;100.00;102686.91;5041752;28;20125;-81
2022/01/29 03:40:00;;;;;;;74.38;32.03;;;;;;;4.74;100.00;102678.25;5048398;28;20108;-81
2022/01/29 03:42:27;;;;;;;72.85;30.95;;;;;;;4.74;100.00;102676.56;5037916;28;20108;-81
2022/01/29 03:44:54;;;;;;;69.13;31.35;;;;;;;4.75;100.00;102667.09;5030404;28;20041;-81
2022/01/29 03:47:19;;;;;;;65.05;30.58;;;;;;;4.76;100.00;102659.38;5031665;28;20029;-81
2022/01/29 03:49:44;;;;;;;67.03;30.83;;;;;;;4.77;100.00;102666.28;5030922;28;20476;-81
2022/01/29 03:52:10;;;;;;;67.20;28.58;;;;;;;4.77;100.00;102655.06;5038859;28;20058;-81
2022/01/29 03:54:35;;;;;;;62.50;29.27;;;;;;;4.78;100.00;102659.44;5051008;28;20029;-81
2022/01/29 03:57:00;;;;;;;67.72;28.02;;;;;;;4.78;100.00;102642.22;5049260;28;20033;-81
2022/01/29 03:59:25;;;;;;;62.67;29.00;;;;;;;4.77;100.00;102632.69;5048852;28;20024;-81
2022/01/29 04:01:51;;;;;;;64.32;29.27;;;;;;;4.80;100.00;102652.59;5036431;28;20037;-81
2022/01/29 04:04:16;;;;;;;58.65;26.98;;;;;;;4.82;100.00;102656.09;5051371;28;20210;-81
2022/01/29 04:06:41;;;;;;;60.83;26.13;;;;;;;4.84;100.00;102647.56;5049947;28;20033;-81
2022/01/29 04:09:10;;;;;;;57.45;26.50;;;;;;;4.86;100.00;102640.72;5050947;28;20107;-81
2022/01/29 04:11:37;;;;;;;61.67;27.27;;;;;;;4.88;100.00;102649.41;5034782;28;20048;-81
2022/01/29 04:14:03;;;;;;;58.67;25.67;;;;;;;4.91;100.00;102654.66;5050694;28;20029;-81
2022/01/29 04:16:29;;;;;;;57.03;24.98;;;;;;;4.91;100.00;102646.91;5050872;28;20025;-81
2022/01/29 04:18:54;;;;;;;54.08;24.45;;;;;;;4.96;100.00;102653.91;5050927;28;20045;-81
2022/01/29 04:21:19;;;;;;;55.65;24.75;;;;;;;4.99;100.00;102649.69;5036651;28;20120;-81
2022/01/29 04:23:44;;;;;;;54.50;25.65;;;;;;;5.03;100.00;102651.53;5053538;28;20037;-81
2022/01/29 04:26:10;;;;;;;51.33;25.45;;;;;;;5.02;100.00;102642.03;5043009;28;20087;-81
2022/01/29 04:28:40;;;;;;;54.40;24.20;;;;;;;5.04;100.00;102636.94;5033854;28;20018;-81
2022/01/29 04:31:11;;;;;;;57.58;25.95;;;;;;;5.06;100.00;102625.78;5034683;28;20104;-81
2022/01/29 04:33:36;;;;;;;57.97;24.70;;;;;;;5.10;100.00;102624.13;5053661;28;20111;-81
2022/01/29 04:36:04;;;;;;;53.00;24.88;;;;;;;5.11;100.00;102625.91;5053587;28;20105;-82
2022/01/29 04:38:30;;;;;;;51.58;22.80;;;;;;;5.13;100.00;102624.22;5054019;28;20021;-81
2022/01/29 04:40:57;;;;;;;55.03;24.77;;;;;;;5.15;100.00;102623.44;5052179;28;20037;-81
2022/01/29 04:43:23;;;;;;;53.60;24.38;;;;;;;5.14;100.00;102610.50;5035999;28;20060;-81
2022/01/29 04:45:48;;;;;;;55.63;26.33;;;;;;;5.20;100.00;102626.19;5033653;28;20057;-81
2022/01/29 04:48:14;;;;;;;58.38;26.25;;;;;;;5.19;100.00;102621.81;5033670;28;20036;-81
2022/01/29 04:50:40;;;;;;;55.60;24.77;;;;;;;5.23;100.00;102618.50;5034635;28;20040;-81
2022/01/29 04:53:05;;;;;;;56.00;24.95;;;;;;;5.23;100.00;102600.41;5034266;28;20604;-82
2022/01/29 04:55:31;;;;;;;58.55;26.55;;;;;;;5.25;100.00;102600.44;5033380;28;20483;-81
2022/01/29 04:57:57;;;;;;;60.75;26.40;;;;;;;5.30;100.00;102607.47;5034083;28;20104;-81
2022/01/29 05:00:22;;;;;;;60.65;27.45;;;;;;;5.31;100.00;102598.88;5035260;28;20172;-82
2022/01/29 05:02:49;;;;;;;60.65;26.65;;;;;;;5.31;100.00;102598.88;5032833;28;20040;-81
2022/01/29 05:05:15;;;;;;;57.28;26.75;;;;;;;5.32;100.00;102592.84;5034130;28;20021;-81
2022/01/29 05:07:40;;;;;;;56.20;26.77;;;;;;;5.35;100.00;102595.53;5033187;28;20044;-81
2022/01/29 05:10:06;;;;;;;68.78;29.52;;;;;;;5.37;100.00;102588.69;5034441;28;20052;-81
2022/01/29 05:12:43;;;;;;;59.55;28.15;;;;;;;5.38;100.00;102586.97;5033745;28;20030;-81
2022/01/29 05:28:48;;;;;;;65.75;28.83;;;;;;;5.47;100.00;102569.13;5053247;28;20366;-81
2022/01/29 05:31:13;;;;;;;63.58;28.30;;;;;;;5.52;100.00;102561.44;5039643;28;20021;-81
2022/01/29 05:33:39;;;;;;;61.72;28.35;;;;;;;5.52;100.00;102558.88;5032753;28;20028;-81
2022/01/29 05:36:04;;;;;;;61.42;27.85;;;;;;;5.56;100.00;102568.47;5033555;28;20440;-81
2022/01/29 05:38:30;;;;;;;66.38;29.27;;;;;;;5.58;100.00;102569.38;5032443;28;20064;-81
2022/01/29 05:40:55;;;;;;;72.43;30.70;;;;;;;5.53;100.00;102564.09;5042796;28;20031;-81
2022/01/29 05:43:21;;;;;;;65.90;29.35;;;;;;;5.62;100.00;102581.53;5051184;28;20476;-81
2022/01/29 05:45:47;;;;;;;61.70;29.10;;;;;;;5.62;100.00;102576.38;5052023;28;20060;-80
2022/01/29 05:48:12;;;;;;;69.07;30.95;;;;;;;5.63;100.00;102581.59;5037282;28;20065;-81
2022/01/29 05:50:38;;;;;;;61.83;27.80;;;;;;;5.63;100.00;102568.66;5039861;28;20029;-81
2022/01/29 05:53:04;;;;;;;68.93;29.17;;;;;;;5.68;100.00;102567.88;5052253;28;20379;-81
2022/01/29 05:55:29;;;;;;;61.58;28.58;;;;;;;5.66;100.00;102565.28;5052599;28;20025;-81
2022/01/29 05:57:54;;;;;;;64.50;29.02;;;;;;;5.64;100.00;102556.59;5052856;28;20036;-81
2022/01/29 06:00:20;;;;;;;68.75;28.40;;;;;;;5.68;100.00;102561.00;5050231;28;20036;-81
2022/01/29 06:02:45;;;;;;;64.25;29.45;;;;;;;5.68;100.00;102555.81;5052344;28;20041;-81
2022/01/29 06:05:10;;;;;;;61.55;29.13;;;;;;;5.73;100.00;102558.53;5040784;28;20056;-81
2022/01/29 06:07:36;;;;;;;65.07;30.08;;;;;;;5.75;100.00;102559.41;5031798;28;20033;-81
2022/01/29 06:10:01;;;;;;;64.03;29.48;;;;;;;5.73;100.00;102553.34;5033358;28;20159;-81
2022/01/29 06:12:26;;;;;;;65.43;29.63;;;;;;;5.77;100.00;102555.16;5045561;28;20036;-81
2022/01/29 06:14:51;;;;;;;62.53;29.50;;;;;;;5.74;100.00;102540.44;5047359;28;20109;-81
2022/01/29 06:17:17;;;;;;;63.05;28.40;;;;;;;5.79;100.00;102546.59;5032734;28;20037;-81
2022/01/29 06:19:42;;;;;;;64.05;29.75;;;;;;;5.81;100.00;102550.09;5031360;28;20534;-81
2022/01/29 06:22:11;;;;;;;73.63;31.98;;;;;;;5.81;100.00;102547.50;5042257;28;20162;-81
2022/01/29 06:24:36;;;;;;;59.65;28.13;;;;;;;5.85;100.00;102548.44;5032147;28;20029;-81
2022/01/29 06:27:02;;;;;;;63.95;30.15;;;;;;;5.82;100.00;102541.50;5031712;28;20029;-82
2022/01/29 06:29:27;;;;;;;57.80;28.13;;;;;;;5.83;100.00;102538.06;5032337;28;20033;-81
2022/01/29 06:31:52;;;;;;;63.72;29.25;;;;;;;5.87;100.00;102542.47;5033327;28;20026;-81
2022/01/29 06:34:18;;;;;;;59.17;27.40;;;;;;;5.84;100.00;102544.97;5031646;28;20033;-81
2022/01/29 06:36:43;;;;;;;60.33;29.42;;;;;;;5.91;100.00;102545.13;5031829;28;20461;-81
2022/01/29 06:39:08;;;;;;;58.10;29.25;;;;;;;5.88;100.00;102535.56;5032256;28;20026;-81
2022/01/29 06:41:33;;;;;;;62.30;29.17;;;;;;;5.89;100.00;102532.16;5048192;28;20044;-81
2022/01/29 06:43:59;;;;;;;59.53;28.98;;;;;;;5.90;100.00;102527.88;5051070;28;20041;-81
2022/01/29 06:46:24;;;;;;;60.65;27.92;;;;;;;5.92;100.00;102541.69;5049178;28;20039;-81
2022/01/29 06:48:49;;;;;;;65.82;29.40;;;;;;;5.95;100.00;102528.84;5050961;28;20051;-81
2022/01/29 06:51:16;;;;;;;58.22;27.27;;;;;;;5.95;100.00;102531.44;5052324;28;20096;-82
2022/01/29 06:53:42;;;;;;;55.80;27.30;;;;;;;5.96;100.00;102528.03;5051377;28;20025;-81
2022/01/29 06:56:08;;;;;;;58.80;28.65;;;;;;;5.95;100.00;102534.03;5049210;28;20102;-81
2022/01/29 06:58:33;;;;;;;58.03;27.23;;;;;;;5.97;100.00;102516.84;5051989;28;20025;-81
2022/01/29 07:00:59;;;;;;;58.08;29.50;;;;;;;6.01;100.00;102519.50;5043927;28;20029;-81
2022/01/29 07:03:24;;;;;;;53.03;27.85;;;;;;;6.01;100.00;102506.56;5031179;28;20029;-81
2022/01/29 07:05:49;;;;;;;60.10;28.67;;;;;;;6.03;100.00;102509.22;5032605;28;20495;-81
2022/01/29 07:08:15;;;;;;;60.95;27.38;;;;;;;6.08;100.00;102507.56;5031993;28;20022;-81
2022/01/29 07:10:40;;;;;;;61.55;28.48;;;;;;;6.05;100.00;102500.63;5030903;28;20056;-81
2022/01/29 07:13:06;;;;;;;53.25;27.08;;;;;;;6.08;100.00;102511.06;5034732;28;20041;-81
2022/01/29 07:15:32;;;;;;;50.33;25.90;;;;;;;6.05;100.00;102494.59;5042726;28;20108;-81
2022/01/29 07:17:57;;;;;;;62.63;27.88;;;;;;;6.08;100.00;102498.13;5031038;28;20488;-81
2022/01/29 07:20:23;;;;;;;51.78;26.90;;;;;;;6.11;100.00;102497.28;5031969;28;20065;-81
2022/01/29 07:22:48;;;;;;;55.72;26.88;;;;;;;6.14;100.00;102501.66;5030518;28;20021;-81
2022/01/29 07:25:14;;;;;;;51.88;26.85;;;;;;;6.15;100.00;102495.63;5038077;28;20025;-81
2022/01/29 07:27:40;;;;;;;50.60;25.83;;;;;;;6.15;100.00;102495.63;5051215;28;20048;-81
2022/01/29 07:30:06;;;;;;;58.40;28.63;;;;;;;6.10;100.00;102492.94;5051111;28;20029;-81
2022/01/29 07:32:31;;;;;;;54.65;26.55;;;;;;;6.12;100.00;102493.00;5051356;28;20075;-82
2022/01/29 07:34:57;;;;;;;58.13;27.95;;;;;;;6.14;100.00;102497.34;5041013;28;20783;-81
2022/01/29 07:37:22;;;;;;;64.13;28.58;;;;;;;6.16;100.00;102500.84;5051065;28;20036;-81
2022/01/29 07:39:48;;;;;;;59.55;27.88;;;;;;;6.16;100.00;102510.34;5050897;28;20079;-81
2022/01/29 07:42:13;;;;;;;59.53;26.98;;;;;;;6.20;100.00;102505.25;5036580;28;20115;-81
2022/01/29 07:44:38;;;;;;;60.50;26.67;;;;;;;6.22;100.00;102494.94;5030073;28;20370;-81
2022/01/29 07:47:04;;;;;;;55.92;26.92;;;;;;;6.24;100.00;102491.50;5051670;28;20071;-81
2022/01/29 07:49:29;;;;;;;55.63;26.85;;;;;;;6.27;100.00;102496.75;5045955;28;20116;-81
2022/01/29 07:51:54;;;;;;;56.75;27.73;;;;;;;6.29;100.00;102487.31;5046718;28;20032;-81
2022/01/29 07:54:20;;;;;;;56.50;27.63;;;;;;;6.32;100.00;102491.69;5051047;28;20547;-81
2022/01/29 07:56:45;;;;;;;58.97;27.20;;;;;;;6.36;100.00;102487.44;5053580;28;20112;-81
2022/01/29 07:59:10;;;;;;;57.83;27.15;;;;;;;6.37;100.00;102487.47;5054425;28;20052;-82
2022/01/29 08:01:36;;;;;;;56.78;27.40;;;;;;;6.40;100.00;102479.75;5047423;28;20104;-81
2022/01/29 08:04:01;;;;;;;61.10;28.17;;;;;;;6.41;100.00;102473.75;5046125;28;20414;-81
2022/01/29 08:06:29;;;;;;;56.75;27.33;;;;;;;6.47;100.00;102479.03;5053894;28;20120;-81
2022/01/29 08:08:54;;;;;;;57.25;26.83;;;;;;;6.52;100.00;102480.00;5038205;28;20029;-82
2022/01/29 08:11:19;;;;;;;56.38;27.67;;;;;;;6.55;100.00;102467.09;5035047;28;20116;-81
2022/01/29 08:13:48;;;;;;;55.42;27.77;;;;;;;6.63;100.00;102472.44;5034797;28;20030;-81
2022/01/29 08:16:14;;;;;;;57.88;30.83;;;;;;;6.65;100.00;102469.88;5042914;28;20032;-82
2022/01/29 08:18:42;;;;;;;53.13;27.13;;;;;;;6.67;100.00;102471.66;5043873;28;20082;-82
2022/01/29 08:21:07;;;;;;;53.92;28.30;;;;;;;6.72;100.00;102474.31;5034146;28;20029;-82
2022/01/29 08:23:33;;;;;;;50.00;26.40;;;;;;;6.73;100.00;102461.38;5042011;28;20024;-82
2022/01/29 08:25:58;;;;;;;50.70;27.52;;;;;;;6.76;100.00;102458.84;5053692;28;20094;-82
2022/01/29 08:28:24;;;;;;;47.30;26.30;;;;;;;6.80;100.00;102458.06;5053776;28;20412;-82
2022/01/29 08:30:49;;;;;;;46.97;25.00;;;;;;;6.81;100.00;102451.16;5044549;28;20040;-82
2022/01/29 08:33:18;;;;;;;50.80;26.63;;;;;;;6.88;100.00;102452.16;5038343;28;20029;-82
2022/01/29 08:35:47;;;;;;;44.13;24.85;;;;;;;6.91;100.00;102447.03;5053956;28;20036;-82
2022/01/29 08:38:14;;;;;;;46.08;25.25;;;;;;;6.96;100.00;102458.31;5039129;28;20053;-82
2022/01/29 08:40:40;;;;;;;42.53;25.30;;;;;;;7.00;100.00;102432.50;5035806;28;20468;-82
2022/01/29 08:43:05;;;;;;;48.25;25.10;;;;;;;7.04;100.00;102429.09;5046434;28;20029;-82
2022/01/29 08:45:31;;;;;;;44.08;24.85;;;;;;;7.08;100.00;102429.16;5034702;28;20060;-82
2022/01/29 08:47:56;;;;;;;40.55;23.52;;;;;;;7.13;100.00;102436.16;5053301;28;20033;-81
2022/01/29 08:50:21;;;;;;;45.42;24.83;;;;;;;7.17;100.00;102422.38;5054284;28;20502;-82
2022/01/29 08:52:47;;;;;;;45.47;24.80;;;;;;;7.19;100.00;102419.81;5052628;28;20361;-81
2022/01/29 08:55:13;;;;;;;41.00;22.67;;;;;;;7.24;100.00;102428.53;5034900;28;20036;-81
2022/01/29 08:57:39;;;;;;;38.70;22.90;;;;;;;7.25;100.00;102438.94;5047989;28;20040;-81
2022/01/29 09:00:06;;;;;;;39.17;23.27;;;;;;;7.25;100.00;102436.34;5045443;28;20029;-81
2022/01/29 09:02:31;;;;;;;38.85;23.23;;;;;;;7.24;100.00;102426.81;5039911;28;20060;-81
2022/01/29 09:04:58;;;;;;;44.55;23.40;;;;;;;7.27;100.00;102442.44;5052969;28;20480;-82
2022/01/29 09:07:24;;;;;;;37.78;22.27;;;;;;;7.29;100.00;102429.47;5033403;28;20038;-82
2022/01/29 09:09:49;;;;;;;38.92;21.80;;;;;;;7.30;100.00;102420.00;5033673;28;20033;-82
2022/01/29 09:12:15;;;;;;;36.55;22.13;;;;;;;7.33;100.00;102420.03;5045347;28;20030;-82
2022/01/29 09:14:41;;;;;;;37.00;22.20;;;;;;;7.35;100.00;102416.59;5041933;28;20030;-82
2022/01/29 09:17:07;;;;;;;33.97;20.60;;;;;;;7.38;100.00;102415.78;5052448;28;20029;-82
2022/01/29 09:19:32;;;;;;;34.85;20.60;;;;;;;7.44;100.00;102408.09;5053403;28;20074;-82
2022/01/29 09:21:58;;;;;;;31.50;20.13;;;;;;;7.49;100.00;102416.81;5035382;28;20111;-82
2022/01/29 09:24:23;;;;;;;33.05;19.70;;;;;;;7.50;100.00;102413.38;5050017;28;20065;-82
2022/01/29 09:26:49;;;;;;;39.95;20.20;;;;;;;7.51;100.00;102408.19;5053097;28;20423;-82
2022/01/29 09:29:14;;;;;;;33.90;19.67;;;;;;;7.56;100.00;102408.28;5051908;28;20110;-82
2022/01/29 09:31:40;;;;;;;33.67;18.85;;;;;;;7.59;100.00;102405.72;5051876;28;20059;-82
2022/01/29 09:34:05;;;;;;;26.25;17.92;;;;;;;7.62;100.00;102413.53;5045153;28;20049;-82
2022/01/29 09:36:30;;;;;;;31.65;18.75;;;;;;;7.63;100.00;102412.69;5043904;28;20029;-82
2022/01/29 09:38:56;;;;;;;27.15;19.38;;;;;;;7.67;100.00;102409.28;5049760;28;20024;-82
2022/01/29 09:41:24;;;;;;;30.05;19.30;;;;;;;7.70;100.00;102418.84;5051701;28;20021;-83
2022/01/29 09:43:52;;;;;;;33.53;18.33;;;;;;;7.70;100.00;102417.09;5042643;28;20049;-83
2022/01/29 09:46:18;;;;;;;30.33;18.45;;;;;;;7.75;100.00;102424.97;5049507;28;20036;-82
2022/01/29 09:48:44;;;;;;;31.10;18.73;;;;;;;7.76;100.00;102405.94;5046978;28;20026;-82
2022/01/29 09:51:12;;;;;;;27.65;17.75;;;;;;;7.77;100.00;102409.41;5052253;28;20039;-82
2022/01/29 09:53:45;;;;;;;27.42;18.48;;;;;;;7.76;100.00;102405.06;5050983;28;20029;-82
2022/01/29 09:56:12;;;;;;;30.90;21.08;;;;;;;7.76;100.00;102415.47;5041591;28;20033;-83
2022/01/29 09:58:37;;;;;;;31.85;19.25;;;;;;;7.73;100.00;102404.16;5051916;28;20021;-82
2022/01/29 10:01:02;;;;;;;27.05;18.73;;;;;;;7.77;100.00;102418.06;5052534;28;20035;-82
2022/01/29 10:03:28;;;;;;;32.03;18.45;;;;;;;7.81;100.00;102416.38;5052442;28;20025;-82
2022/01/29 10:05:56;;;;;;;31.60;18.25;;;;;;;7.90;100.00;102419.09;5049847;28;20033;-81
2022/01/29 10:08:23;;;;;;;30.70;19.00;;;;;;;7.95;100.00;102412.25;5052990;28;20029;-81
2022/01/29 10:10:56;;;;;;;31.70;18.58;;;;;;;7.95;100.00;102407.91;5051080;28;20439;-81
2022/01/29 10:13:29;;;;;;;30.85;17.98;;;;;;;8.02;100.00;102408.88;5050147;28;20036;-82
2022/01/29 10:16:04;;;;;;;26.70;18.73;;;;;;;8.09;100.00;102415.88;5032535;28;20027;-83
2022/01/29 10:18:30;;;;;;;29.27;18.83;;;;;;;8.10;100.00;102407.22;5049362;28;20048;-81
2022/01/29 10:21:09;;;;;;;32.15;18.80;;;;;;;8.15;100.00;102400.34;5049787;28;20021;-82
2022/01/29 10:23:35;;;;;;;30.30;17.58;;;;;;;8.17;100.00;102401.25;5046169;28;20516;-82
2022/01/29 10:26:01;;;;;;;26.67;18.38;;;;;;;8.19;100.00;102402.13;5043506;28;20143;-82
2022/01/29 10:28:27;;;;;;;27.10;18.80;;;;;;;8.25;100.00;102405.66;5031850;28;20017;-82
2022/01/29 10:31:04;;;;;;;25.60;17.13;;;;;;;8.31;100.00;102391.00;5048135;28;20033;-81
2022/01/29 10:33:42;;;;;;;25.98;17.67;;;;;;;8.41;100.00;102379.03;5046482;28;20468;-81
2022/01/29 10:36:16;;;;;;;26.60;17.45;;;;;;;8.43;100.00;102375.56;5036783;28;20113;-81
2022/01/29 10:38:57;;;;;;;27.08;18.23;;;;;;;8.47;100.00;102367.78;5033217;28;20087;-82
2022/01/29 10:41:26;;;;;;;27.33;17.95;;;;;;;8.50;100.00;102362.63;5034147;28;20522;-81
2022/01/29 10:44:12;;;;;;;25.05;17.17;;;;;;;8.54;100.00;102367.88;5039092;28;20503;-81
2022/01/29 10:46:48;;;;;;;25.23;17.92;;;;;;;8.56;100.00;102366.16;5032812;28;20056;-81
2022/01/29 10:49:18;;;;;;;24.75;16.80;;;;;;;8.65;100.00;102361.03;5036363;28;20041;-81
2022/01/29 10:51:54;;;;;;;26.63;17.70;;;;;;;8.76;100.00;102345.53;5032754;28;20036;-81
2022/01/29 10:54:20;;;;;;;25.08;16.58;;;;;;;8.84;100.00;102341.25;5039418;28;20100;-81
2022/01/29 10:56:58;;;;;;;23.60;16.15;;;;;;;8.89;100.00;102355.19;5041566;28;20014;-81
2022/01/29 10:59:26;;;;;;;26.77;15.43;;;;;;;8.88;100.00;102345.63;5031889;28;20052;-81
2022/01/29 11:01:57;;;;;;;21.67;15.38;;;;;;;8.86;100.00;102338.66;5048769;28;20033;-81
2022/01/29 11:04:25;;;;;;;20.60;14.73;;;;;;;8.90;100.00;102346.50;5049815;28;20448;-81
2022/01/29 11:06:52;;;;;;;19.75;14.88;;;;;;;8.90;100.00;102340.44;5051023;28;20082;-81
2022/01/29 11:09:17;;;;;;;21.05;14.38;;;;;;;9.00;100.00;102344.00;5050267;28;20033;-82
2022/01/29 11:11:45;;;;;;;21.58;14.13;;;;;;;9.12;100.00;102331.94;5045760;28;20083;-81
2022/01/29 11:14:13;;;;;;;17.02;12.80;;;;;;;9.13;100.00;102323.25;5042385;28;20477;-82
2022/01/29 11:16:39;;;;;;;15.38;11.32;;;;;;;9.15;100.00;102333.66;5017175;28;20116;-80
2022/01/29 11:19:06;;;;;;;16.05;11.68;;;;;;;9.10;100.00;102323.25;5036737;28;20064;-81
2022/01/29 11:21:32;;;;;;;16.67;11.90;;;;;;;9.17;100.00;102310.28;5044278;28;20028;-81